sensor_id;sensor_type;location;lat;lon;timestamp;temperature;humidity
31309;DHT22;17936;52.446;10.840;2023-03-22T00:00:27;9.00;99.90
31309;DHT22;17936;52.446;10.840;2023-03-22T00:02:54;9.00;99.90
31309;DHT22;17936;52.446;10.840;2023-03-22T00:05:20;9.00;99.90
31309;DHT22;17936;52.446;10.840;2023-03-22T00:07:46;9.00;99.90
31309;DHT22;17936;52.446;10.840;2023-03-22T00:10:15;8.90;99.90
31309;DHT22;17936;52.446;10.840;2023-03-22T00:12:42;8.90;99.90
31309;DHT22;17936;52.446;10.840;2023-03-22T00:15:08;8.90;99.90
31309;DHT22;17936;52.446;10.840;2023-03-22T00:17:33;8.90;99.90
31309;DHT22;17936;52.446;10.840;2023-03-22T00:20:01;9.00;99.90
31309;DHT22;17936;52.446;10.840;2023-03-22T00:22:30;9.00;99.90
31309;DHT22;17936;52.446;10.840;2023-03-22T00:24:56;9.00;99.90
31309;DHT22;17936;52.446;10.840;2023-03-22T00:27:21;9.00;99.90
31309;DHT22;17936;52.446;10.840;2023-03-22T00:29:47;9.00;99.90
31309;DHT22;17936;52.446;10.840;2023-03-22T00:32:12;9.00;99.90
31309;DHT22;17936;52.446;10.840;2023-03-22T00:34:38;9.00;99.90
31309;DHT22;17936;52.446;10.840;2023-03-22T00:37:03;8.90;99.90
31309;DHT22;17936;52.446;10.840;2023-03-22T00:39:29;9.00;99.90
31309;DHT22;17936;52.446;10.840;2023-03-22T00:41:54;8.90;99.90
31309;DHT22;17936;52.446;10.840;2023-03-22T00:44:20;8.90;99.90
31309;DHT22;17936;52.446;10.840;2023-03-22T00:46:45;8.90;99.90
31309;DHT22;17936;52.446;10.840;2023-03-22T00:49:11;8.80;99.90
31309;DHT22;17936;52.446;10.840;2023-03-22T00:51:36;8.80;99.90
31309;DHT22;17936;52.446;10.840;2023-03-22T00:54:02;8.80;99.90
31309;DHT22;17936;52.446;10.840;2023-03-22T00:56:27;8.70;99.90
31309;DHT22;17936;52.446;10.840;2023-03-22T00:58:53;8.80;99.90
31309;DHT22;17936;52.446;10.840;2023-03-22T01:01:19;8.80;99.90
31309;DHT22;17936;52.446;10.840;2023-03-22T01:03:44;8.70;99.90
31309;DHT22;17936;52.446;10.840;2023-03-22T01:06:14;8.70;99.90
31309;DHT22;17936;52.446;10.840;2023-03-22T01:08:40;8.70;99.90
31309;DHT22;17936;52.446;10.840;2023-03-22T01:11:07;8.70;99.90
31309;DHT22;17936;52.446;10.840;2023-03-22T01:13:34;8.60;99.90
31309;DHT22;17936;52.446;10.840;2023-03-22T01:16:02;8.70;99.90
31309;DHT22;17936;52.446;10.840;2023-03-22T01:18:27;8.70;99.90
31309;DHT22;17936;52.446;10.840;2023-03-22T01:20:53;8.70;99.90
31309;DHT22;17936;52.446;10.840;2023-03-22T01:23:18;8.80;99.90
31309;DHT22;17936;52.446;10.840;2023-03-22T01:25:44;8.80;99.90
31309;DHT22;17936;52.446;10.840;2023-03-22T01:28:30;8.80;99.90
31309;DHT22;17936;52.446;10.840;2023-03-22T01:30:59;8.90;99.90
31309;DHT22;17936;52.446;10.840;2023-03-22T01:33:25;8.90;99.90
31309;DHT22;17936;52.446;10.840;2023-03-22T01:35:50;8.90;99.90
31309;DHT22;17936;52.446;10.840;2023-03-22T01:38:16;9.00;99.90
31309;DHT22;17936;52.446;10.840;2023-03-22T01:40:41;9.00;99.90
31309;DHT22;17936;52.446;10.840;2023-03-22T01:43:14;8.90;99.90
31309;DHT22;17936;52.446;10.840;2023-03-22T01:45:47;8.90;99.90
31309;DHT22;17936;52.446;10.840;2023-03-22T01:50:50;8.90;99.90
31309;DHT22;17936;52.446;10.840;2023-03-22T01:53:20;8.80;99.90
31309;DHT22;17936;52.446;10.840;2023-03-22T01:55:48;8.90;99.90
31309;DHT22;17936;52.446;10.840;2023-03-22T01:58:14;8.90;99.90
31309;DHT22;17936;52.446;10.840;2023-03-22T02:00:43;8.90;99.90
31309;DHT22;17936;52.446;10.840;2023-03-22T02:03:09;9.00;99.90
31309;DHT22;17936;52.446;10.840;2023-03-22T02:05:37;8.90;99.90
31309;DHT22;17936;52.446;10.840;2023-03-22T02:08:04;8.90;99.90
31309;DHT22;17936;52.446;10.840;2023-03-22T02:10:30;8.80;99.90
31309;DHT22;17936;52.446;10.840;2023-03-22T02:13:37;8.90;99.90
31309;DHT22;17936;52.446;10.840;2023-03-22T02:32:57;8.90;99.90
31309;DHT22;17936;52.446;10.840;2023-03-22T02:35:35;8.90;99.90
31309;DHT22;17936;52.446;10.840;2023-03-22T02:40:46;8.90;99.90
31309;DHT22;17936;52.446;10.840;2023-03-22T02:43:21;8.90;99.90
31309;DHT22;17936;52.446;10.840;2023-03-22T02:46:04;9.00;99.90
31309;DHT22;17936;52.446;10.840;2023-03-22T02:51:18;9.00;99.90
31309;DHT22;17936;52.446;10.840;2023-03-22T02:53:54;9.00;99.90
31309;DHT22;17936;52.446;10.840;2023-03-22T02:56:25;9.00;99.90
31309;DHT22;17936;52.446;10.840;2023-03-22T02:58:57;9.00;99.90
31309;DHT22;17936;52.446;10.840;2023-03-22T03:01:34;9.00;99.90
31309;DHT22;17936;52.446;10.840;2023-03-22T03:04:04;9.00;99.90
31309;DHT22;17936;52.446;10.840;2023-03-22T03:06:33;9.00;99.90
31309;DHT22;17936;52.446;10.840;2023-03-22T03:09:03;9.10;99.90
31309;DHT22;17936;52.446;10.840;2023-03-22T03:11:30;9.10;99.90
31309;DHT22;17936;52.446;10.840;2023-03-22T03:13:56;9.10;99.90
31309;DHT22;17936;52.446;10.840;2023-03-22T03:16:25;9.00;99.90
31309;DHT22;17936;52.446;10.840;2023-03-22T03:18:53;9.00;99.90
31309;DHT22;17936;52.446;10.840;2023-03-22T03:27:22;9.20;99.90
31309;DHT22;17936;52.446;10.840;2023-03-22T03:29:56;9.20;99.90
31309;DHT22;17936;52.446;10.840;2023-03-22T03:32:28;9.20;99.90
31309;DHT22;17936;52.446;10.840;2023-03-22T03:35:18;9.30;99.90
31309;DHT22;17936;52.446;10.840;2023-03-22T03:37:54;9.20;99.90
31309;DHT22;17936;52.446;10.840;2023-03-22T03:40:31;9.20;99.90
31309;DHT22;17936;52.446;10.840;2023-03-22T03:43:03;9.20;99.90
31309;DHT22;17936;52.446;10.840;2023-03-22T03:45:30;9.20;99.90
31309;DHT22;17936;52.446;10.840;2023-03-22T03:47:59;9.20;99.90
31309;DHT22;17936;52.446;10.840;2023-03-22T03:50:26;9.20;99.90
31309;DHT22;17936;52.446;10.840;2023-03-22T03:52:53;9.20;99.90
31309;DHT22;17936;52.446;10.840;2023-03-22T03:55:19;9.20;99.90
31309;DHT22;17936;52.446;10.840;2023-03-22T03:57:45;9.10;99.90
31309;DHT22;17936;52.446;10.840;2023-03-22T04:00:12;9.20;99.90
31309;DHT22;17936;52.446;10.840;2023-03-22T04:02:40;9.20;99.90
31309;DHT22;17936;52.446;10.840;2023-03-22T04:05:06;9.10;99.90
31309;DHT22;17936;52.446;10.840;2023-03-22T04:07:32;9.20;99.90
31309;DHT22;17936;52.446;10.840;2023-03-22T04:09:58;9.20;99.90
31309;DHT22;17936;52.446;10.840;2023-03-22T04:12:23;9.30;99.90
31309;DHT22;17936;52.446;10.840;2023-03-22T04:14:49;9.30;99.90
31309;DHT22;17936;52.446;10.840;2023-03-22T04:17:15;9.30;99.90
31309;DHT22;17936;52.446;10.840;2023-03-22T04:19:40;9.30;99.90
31309;DHT22;17936;52.446;10.840;2023-03-22T04:22:06;9.30;99.90
31309;DHT22;17936;52.446;10.840;2023-03-22T04:24:42;9.30;99.90
31309;DHT22;17936;52.446;10.840;2023-03-22T04:27:08;9.30;99.90
31309;DHT22;17936;52.446;10.840;2023-03-22T04:29:34;9.30;99.90
31309;DHT22;17936;52.446;10.840;2023-03-22T04:32:04;9.30;99.90
31309;DHT22;17936;52.446;10.840;2023-03-22T04:34:30;9.30;99.90
31309;DHT22;17936;52.446;10.840;2023-03-22T04:36:55;9.30;99.90
31309;DHT22;17936;52.446;10.840;2023-03-22T04:39:21;9.20;99.90
31309;DHT22;17936;52.446;10.840;2023-03-22T04:41:47;9.30;99.90
31309;DHT22;17936;52.446;10.840;2023-03-22T04:44:12;9.20;99.90
31309;DHT22;17936;52.446;10.840;2023-03-22T04:46:38;9.20;99.90
31309;DHT22;17936;52.446;10.840;2023-03-22T04:49:04;9.30;99.90
31309;DHT22;17936;52.446;10.840;2023-03-22T04:51:30;9.30;99.90
31309;DHT22;17936;52.446;10.840;2023-03-22T04:53:56;9.40;99.90
31309;DHT22;17936;52.446;10.840;2023-03-22T04:56:22;9.30;99.90
31309;DHT22;17936;52.446;10.840;2023-03-22T04:58:48;9.30;99.90
31309;DHT22;17936;52.446;10.840;2023-03-22T05:01:15;9.30;99.90
31309;DHT22;17936;52.446;10.840;2023-03-22T05:03:42;9.30;99.90
31309;DHT22;17936;52.446;10.840;2023-03-22T05:06:10;9.30;99.90
31309;DHT22;17936;52.446;10.840;2023-03-22T05:08:36;9.30;99.90
31309;DHT22;17936;52.446;10.840;2023-03-22T05:11:14;9.30;99.90
31309;DHT22;17936;52.446;10.840;2023-03-22T05:13:41;9.30;99.90
31309;DHT22;17936;52.446;10.840;2023-03-22T05:16:08;9.30;99.90
31309;DHT22;17936;52.446;10.840;2023-03-22T05:18:34;9.30;99.90
31309;DHT22;17936;52.446;10.840;2023-03-22T05:21:02;9.30;99.90
31309;DHT22;17936;52.446;10.840;2023-03-22T05:23:28;9.30;99.90
31309;DHT22;17936;52.446;10.840;2023-03-22T05:25:55;9.20;99.90
31309;DHT22;17936;52.446;10.840;2023-03-22T05:28:23;9.30;99.90
31309;DHT22;17936;52.446;10.840;2023-03-22T05:30:49;9.30;99.90
31309;DHT22;17936;52.446;10.840;2023-03-22T05:33:16;9.30;99.90
31309;DHT22;17936;52.446;10.840;2023-03-22T05:35:46;9.30;99.90
31309;DHT22;17936;52.446;10.840;2023-03-22T05:38:11;9.30;99.90
31309;DHT22;17936;52.446;10.840;2023-03-22T05:40:37;9.30;99.90
31309;DHT22;17936;52.446;10.840;2023-03-22T05:43:02;9.40;99.90
31309;DHT22;17936;52.446;10.840;2023-03-22T05:45:28;9.50;99.90
31309;DHT22;17936;52.446;10.840;2023-03-22T05:47:53;9.50;99.90
31309;DHT22;17936;52.446;10.840;2023-03-22T05:50:21;9.50;99.90
31309;DHT22;17936;52.446;10.840;2023-03-22T05:52:47;9.50;99.90
31309;DHT22;17936;52.446;10.840;2023-03-22T05:55:14;9.60;99.90
31309;DHT22;17936;52.446;10.840;2023-03-22T05:57:41;9.60;99.90
31309;DHT22;17936;52.446;10.840;2023-03-22T06:00:09;9.60;99.90
31309;DHT22;17936;52.446;10.840;2023-03-22T06:02:39;9.60;99.90
31309;DHT22;17936;52.446;10.840;2023-03-22T06:05:06;9.60;99.90
31309;DHT22;17936;52.446;10.840;2023-03-22T06:07:32;9.60;99.90
31309;DHT22;17936;52.446;10.840;2023-03-22T06:09:57;9.60;99.90
31309;DHT22;17936;52.446;10.840;2023-03-22T06:12:23;9.60;99.90
31309;DHT22;17936;52.446;10.840;2023-03-22T06:14:50;9.60;99.90
31309;DHT22;17936;52.446;10.840;2023-03-22T06:17:16;9.60;99.90
31309;DHT22;17936;52.446;10.840;2023-03-22T06:19:41;9.60;99.90
31309;DHT22;17936;52.446;10.840;2023-03-22T06:22:07;9.60;99.90
31309;DHT22;17936;52.446;10.840;2023-03-22T06:24:32;9.70;99.90
31309;DHT22;17936;52.446;10.840;2023-03-22T06:26:58;9.70;99.90
31309;DHT22;17936;52.446;10.840;2023-03-22T06:29:24;9.70;99.90
31309;DHT22;17936;52.446;10.840;2023-03-22T06:31:49;9.70;99.90
31309;DHT22;17936;52.446;10.840;2023-03-22T06:34:15;9.70;99.90
31309;DHT22;17936;52.446;10.840;2023-03-22T06:36:40;9.80;99.90
31309;DHT22;17936;52.446;10.840;2023-03-22T06:39:07;9.80;99.90
31309;DHT22;17936;52.446;10.840;2023-03-22T06:41:33;9.90;99.90
31309;DHT22;17936;52.446;10.840;2023-03-22T06:43:58;9.80;99.90
31309;DHT22;17936;52.446;10.840;2023-03-22T06:46:23;9.90;99.90
31309;DHT22;17936;52.446;10.840;2023-03-22T06:48:49;9.90;99.90
31309;DHT22;17936;52.446;10.840;2023-03-22T06:51:15;10.00;99.90
31309;DHT22;17936;52.446;10.840;2023-03-22T06:53:40;10.10;99.90
31309;DHT22;17936;52.446;10.840;2023-03-22T06:56:06;10.10;99.90
31309;DHT22;17936;52.446;10.840;2023-03-22T06:58:31;10.20;99.90
31309;DHT22;17936;52.446;10.840;2023-03-22T07:00:57;10.30;99.90
31309;DHT22;17936;52.446;10.840;2023-03-22T07:03:22;10.40;99.90
31309;DHT22;17936;52.446;10.840;2023-03-22T07:05:48;10.40;99.90
31309;DHT22;17936;52.446;10.840;2023-03-22T07:08:14;10.50;99.90
31309;DHT22;17936;52.446;10.840;2023-03-22T07:10:40;10.40;99.90
31309;DHT22;17936;52.446;10.840;2023-03-22T07:13:06;10.40;99.90
31309;DHT22;17936;52.446;10.840;2023-03-22T07:15:32;10.40;99.90
31309;DHT22;17936;52.446;10.840;2023-03-22T07:17:59;10.40;99.90
31309;DHT22;17936;52.446;10.840;2023-03-22T07:20:26;10.40;99.90
31309;DHT22;17936;52.446;10.840;2023-03-22T07:22:52;10.50;99.90
31309;DHT22;17936;52.446;10.840;2023-03-22T07:25:17;10.50;99.90
31309;DHT22;17936;52.446;10.840;2023-03-22T07:27:43;10.60;99.90
31309;DHT22;17936;52.446;10.840;2023-03-22T07:30:09;10.60;99.90
31309;DHT22;17936;52.446;10.840;2023-03-22T07:32:35;10.70;99.90
31309;DHT22;17936;52.446;10.840;2023-03-22T07:35:00;10.80;99.90
31309;DHT22;17936;52.446;10.840;2023-03-22T07:37:26;10.80;99.90
31309;DHT22;17936;52.446;10.840;2023-03-22T07:39:51;11.00;99.90
31309;DHT22;17936;52.446;10.840;2023-03-22T07:42:17;11.10;99.90
31309;DHT22;17936;52.446;10.840;2023-03-22T07:44:42;11.20;99.90
31309;DHT22;17936;52.446;10.840;2023-03-22T07:47:08;11.30;99.90
31309;DHT22;17936;52.446;10.840;2023-03-22T07:49:33;11.20;99.90
31309;DHT22;17936;52.446;10.840;2023-03-22T07:51:59;11.30;99.90
31309;DHT22;17936;52.446;10.840;2023-03-22T07:54:25;11.20;99.90
31309;DHT22;17936;52.446;10.840;2023-03-22T07:56:50;11.30;99.90
31309;DHT22;17936;52.446;10.840;2023-03-22T07:59:16;11.30;99.90
31309;DHT22;17936;52.446;10.840;2023-03-22T08:01:43;11.30;99.90
31309;DHT22;17936;52.446;10.840;2023-03-22T08:04:08;11.40;99.90
31309;DHT22;17936;52.446;10.840;2023-03-22T08:06:34;11.50;99.90
31309;DHT22;17936;52.446;10.840;2023-03-22T08:09:03;11.60;99.90
31309;DHT22;17936;52.446;10.840;2023-03-22T08:11:28;11.80;99.90
31309;DHT22;17936;52.446;10.840;2023-03-22T08:13:54;11.90;99.90
31309;DHT22;17936;52.446;10.840;2023-03-22T08:16:21;12.00;99.90
31309;DHT22;17936;52.446;10.840;2023-03-22T08:18:47;12.10;99.90
31309;DHT22;17936;52.446;10.840;2023-03-22T08:21:12;12.10;99.90
31309;DHT22;17936;52.446;10.840;2023-03-22T08:23:38;12.10;99.90
31309;DHT22;17936;52.446;10.840;2023-03-22T08:26:04;12.30;99.90
31309;DHT22;17936;52.446;10.840;2023-03-22T08:28:29;12.30;99.90
31309;DHT22;17936;52.446;10.840;2023-03-22T08:30:55;12.40;99.90
31309;DHT22;17936;52.446;10.840;2023-03-22T08:33:20;12.40;99.90
31309;DHT22;17936;52.446;10.840;2023-03-22T08:35:48;12.40;99.90
31309;DHT22;17936;52.446;10.840;2023-03-22T08:38:14;12.20;99.90
31309;DHT22;17936;52.446;10.840;2023-03-22T08:40:39;12.40;99.90
31309;DHT22;17936;52.446;10.840;2023-03-22T08:43:05;12.60;99.90
31309;DHT22;17936;52.446;10.840;2023-03-22T08:45:31;12.90;99.90
31309;DHT22;17936;52.446;10.840;2023-03-22T08:47:57;13.20;99.90
31309;DHT22;17936;52.446;10.840;2023-03-22T08:50:24;13.50;99.90
31309;DHT22;17936;52.446;10.840;2023-03-22T08:52:50;13.50;99.90
31309;DHT22;17936;52.446;10.840;2023-03-22T08:55:17;14.10;99.90
31309;DHT22;17936;52.446;10.840;2023-03-22T08:57:44;14.20;99.90
31309;DHT22;17936;52.446;10.840;2023-03-22T09:00:15;14.10;99.90
31309;DHT22;17936;52.446;10.840;2023-03-22T09:02:41;14.40;99.90
31309;DHT22;17936;52.446;10.840;2023-03-22T09:05:07;14.50;99.90
31309;DHT22;17936;52.446;10.840;2023-03-22T09:07:33;14.70;99.90
31309;DHT22;17936;52.446;10.840;2023-03-22T09:09:58;14.60;99.90
31309;DHT22;17936;52.446;10.840;2023-03-22T09:12:24;14.50;99.90
31309;DHT22;17936;52.446;10.840;2023-03-22T09:14:50;14.60;99.90
31309;DHT22;17936;52.446;10.840;2023-03-22T09:17:16;14.30;99.90
31309;DHT22;17936;52.446;10.840;2023-03-22T09:19:43;14.20;99.90
31309;DHT22;17936;52.446;10.840;2023-03-22T09:22:08;14.20;99.90
31309;DHT22;17936;52.446;10.840;2023-03-22T09:24:34;14.10;99.90
31309;DHT22;17936;52.446;10.840;2023-03-22T09:27:00;14.00;99.90
31309;DHT22;17936;52.446;10.840;2023-03-22T09:29:25;14.00;99.90
31309;DHT22;17936;52.446;10.840;2023-03-22T09:31:51;14.20;99.90
31309;DHT22;17936;52.446;10.840;2023-03-22T09:34:17;14.40;99.90
31309;DHT22;17936;52.446;10.840;2023-03-22T09:36:43;14.30;99.90
31309;DHT22;17936;52.446;10.840;2023-03-22T09:39:08;14.30;99.90
31309;DHT22;17936;52.446;10.840;2023-03-22T09:41:45;14.30;99.90
31309;DHT22;17936;52.446;10.840;2023-03-22T09:44:42;14.30;99.90
31309;DHT22;17936;52.446;10.840;2023-03-22T09:47:18;14.20;99.90
31309;DHT22;17936;52.446;10.840;2023-03-22T09:49:48;14.30;99.90
31309;DHT22;17936;52.446;10.840;2023-03-22T09:52:16;14.10;99.90
31309;DHT22;17936;52.446;10.840;2023-03-22T09:54:44;14.10;99.90
31309;DHT22;17936;52.446;10.840;2023-03-22T09:57:32;14.10;99.90
31309;DHT22;17936;52.446;10.840;2023-03-22T10:00:21;14.30;99.90
31309;DHT22;17936;52.446;10.840;2023-03-22T10:05:45;14.20;99.90
31309;DHT22;17936;52.446;10.840;2023-03-22T10:08:36;14.20;99.90
31309;DHT22;17936;52.446;10.840;2023-03-22T10:14:19;14.30;99.90
31309;DHT22;17936;52.446;10.840;2023-03-22T10:16:48;14.50;99.90
31309;DHT22;17936;52.446;10.840;2023-03-22T10:19:51;14.70;99.90
31309;DHT22;17936;52.446;10.840;2023-03-22T10:22:20;15.20;99.90
31309;DHT22;17936;52.446;10.840;2023-03-22T10:24:51;15.30;99.90
31309;DHT22;17936;52.446;10.840;2023-03-22T10:27:19;15.50;99.90
31309;DHT22;17936;52.446;10.840;2023-03-22T10:29:52;15.20;99.90
31309;DHT22;17936;52.446;10.840;2023-03-22T10:32:26;14.90;99.90
31309;DHT22;17936;52.446;10.840;2023-03-22T10:34:54;14.50;99.90
31309;DHT22;17936;52.446;10.840;2023-03-22T10:37:23;14.30;99.90
31309;DHT22;17936;52.446;10.840;2023-03-22T10:39:54;14.50;99.90
31309;DHT22;17936;52.446;10.840;2023-03-22T10:42:24;14.90;99.90
31309;DHT22;17936;52.446;10.840;2023-03-22T10:47:40;14.80;99.90
31309;DHT22;17936;52.446;10.840;2023-03-22T10:50:19;14.40;99.90
31309;DHT22;17936;52.446;10.840;2023-03-22T10:53:05;14.30;99.90
31309;DHT22;17936;52.446;10.840;2023-03-22T10:55:31;14.40;99.90
31309;DHT22;17936;52.446;10.840;2023-03-22T10:58:18;14.70;99.90
31309;DHT22;17936;52.446;10.840;2023-03-22T11:00:49;15.50;99.90
31309;DHT22;17936;52.446;10.840;2023-03-22T11:03:27;16.00;99.90
31309;DHT22;17936;52.446;10.840;2023-03-22T11:06:23;16.40;99.90
31309;DHT22;17936;52.446;10.840;2023-03-22T11:08:51;15.90;99.90
31309;DHT22;17936;52.446;10.840;2023-03-22T11:11:35;16.20;99.90
31309;DHT22;17936;52.446;10.840;2023-03-22T11:14:22;15.90;99.90
31309;DHT22;17936;52.446;10.840;2023-03-22T11:16:51;15.90;99.90
31309;DHT22;17936;52.446;10.840;2023-03-22T11:19:48;15.40;99.90
31309;DHT22;17936;52.446;10.840;2023-03-22T11:22:38;15.10;99.90
31309;DHT22;17936;52.446;10.840;2023-03-22T11:25:46;15.80;99.90
31309;DHT22;17936;52.446;10.840;2023-03-22T11:28:27;16.10;99.90
31309;DHT22;17936;52.446;10.840;2023-03-22T11:33:31;16.70;99.90
31309;DHT22;17936;52.446;10.840;2023-03-22T11:35:59;16.40;99.90
31309;DHT22;17936;52.446;10.840;2023-03-22T11:38:34;16.50;99.90
31309;DHT22;17936;52.446;10.840;2023-03-22T11:41:05;16.40;99.90
31309;DHT22;17936;52.446;10.840;2023-03-22T11:43:37;16.10;99.90
31309;DHT22;17936;52.446;10.840;2023-03-22T11:46:03;15.70;99.90
31309;DHT22;17936;52.446;10.840;2023-03-22T11:48:31;15.50;99.90
31309;DHT22;17936;52.446;10.840;2023-03-22T11:51:06;15.90;99.90
31309;DHT22;17936;52.446;10.840;2023-03-22T11:53:35;16.10;99.90
31309;DHT22;17936;52.446;10.840;2023-03-22T11:56:02;15.60;99.90
31309;DHT22;17936;52.446;10.840;2023-03-22T11:58:47;15.30;99.90
31309;DHT22;17936;52.446;10.840;2023-03-22T12:01:18;15.50;99.90
31309;DHT22;17936;52.446;10.840;2023-03-22T12:03:54;15.80;99.90
31309;DHT22;17936;52.446;10.840;2023-03-22T12:06:26;16.10;99.90
31309;DHT22;17936;52.446;10.840;2023-03-22T12:09:20;16.10;99.90
31309;DHT22;17936;52.446;10.840;2023-03-22T12:11:47;16.00;99.90
31309;DHT22;17936;52.446;10.840;2023-03-22T12:14:21;15.50;99.90
31309;DHT22;17936;52.446;10.840;2023-03-22T12:17:19;15.50;99.90
31309;DHT22;17936;52.446;10.840;2023-03-22T12:20:03;15.20;99.90
31309;DHT22;17936;52.446;10.840;2023-03-22T12:22:41;15.20;99.90
31309;DHT22;17936;52.446;10.840;2023-03-22T12:25:13;15.50;99.90
31309;DHT22;17936;52.446;10.840;2023-03-22T12:27:42;15.40;99.90
31309;DHT22;17936;52.446;10.840;2023-03-22T12:30:17;15.20;99.90
31309;DHT22;17936;52.446;10.840;2023-03-22T12:32:56;15.60;99.90
31309;DHT22;17936;52.446;10.840;2023-03-22T12:35:26;15.50;99.90
31309;DHT22;17936;52.446;10.840;2023-03-22T12:37:56;15.50;99.90
31309;DHT22;17936;52.446;10.840;2023-03-22T12:40:36;15.10;99.90
31309;DHT22;17936;52.446;10.840;2023-03-22T12:45:48;15.30;99.90
31309;DHT22;17936;52.446;10.840;2023-03-22T12:48:23;15.20;99.90
31309;DHT22;17936;52.446;10.840;2023-03-22T12:50:59;15.30;99.90
31309;DHT22;17936;52.446;10.840;2023-03-22T12:53:31;15.20;99.90
31309;DHT22;17936;52.446;10.840;2023-03-22T12:55:59;15.20;99.90
31309;DHT22;17936;52.446;10.840;2023-03-22T12:58:26;15.20;99.90
31309;DHT22;17936;52.446;10.840;2023-03-22T13:01:08;15.70;99.90
31309;DHT22;17936;52.446;10.840;2023-03-22T13:03:44;15.30;99.90
31309;DHT22;17936;52.446;10.840;2023-03-22T13:11:40;15.70;99.90
31309;DHT22;17936;52.446;10.840;2023-03-22T13:14:05;15.60;99.90
31309;DHT22;17936;52.446;10.840;2023-03-22T13:16:49;15.40;99.90
31309;DHT22;17936;52.446;10.840;2023-03-22T13:19:28;15.70;99.90
31309;DHT22;17936;52.446;10.840;2023-03-22T13:22:16;15.60;99.90
31309;DHT22;17936;52.446;10.840;2023-03-22T13:30:22;16.00;99.90
31309;DHT22;17936;52.446;10.840;2023-03-22T13:33:00;15.90;99.90
31309;DHT22;17936;52.446;10.840;2023-03-22T13:35:44;15.60;99.90
31309;DHT22;17936;52.446;10.840;2023-03-22T13:38:18;15.40;99.90
31309;DHT22;17936;52.446;10.840;2023-03-22T13:43:45;15.20;99.90
31309;DHT22;17936;52.446;10.840;2023-03-22T13:46:26;15.00;99.90
31309;DHT22;17936;52.446;10.840;2023-03-22T13:49:25;14.90;99.90
31309;DHT22;17936;52.446;10.840;2023-03-22T13:51:54;14.80;99.90
31309;DHT22;17936;52.446;10.840;2023-03-22T13:54:25;14.90;99.90
31309;DHT22;17936;52.446;10.840;2023-03-22T13:56:55;14.90;99.90
31309;DHT22;17936;52.446;10.840;2023-03-22T14:02:03;14.90;99.90
31309;DHT22;17936;52.446;10.840;2023-03-22T14:04:56;14.70;99.90
31309;DHT22;17936;52.446;10.840;2023-03-22T14:07:26;14.80;99.90
31309;DHT22;17936;52.446;10.840;2023-03-22T14:10:13;14.80;99.90
31309;DHT22;17936;52.446;10.840;2023-03-22T14:15:50;14.90;99.90
31309;DHT22;17936;52.446;10.840;2023-03-22T14:18:24;14.90;99.90
31309;DHT22;17936;52.446;10.840;2023-03-22T14:21:00;15.00;99.90
31309;DHT22;17936;52.446;10.840;2023-03-22T14:23:29;14.90;99.90
31309;DHT22;17936;52.446;10.840;2023-03-22T14:26:12;14.80;99.90
31309;DHT22;17936;52.446;10.840;2023-03-22T14:28:39;14.80;99.90
31309;DHT22;17936;52.446;10.840;2023-03-22T14:31:06;14.90;99.90
31309;DHT22;17936;52.446;10.840;2023-03-22T14:33:34;14.70;99.90
31309;DHT22;17936;52.446;10.840;2023-03-22T14:36:11;14.70;99.90
31309;DHT22;17936;52.446;10.840;2023-03-22T14:38:40;14.60;99.90
31309;DHT22;17936;52.446;10.840;2023-03-22T14:41:21;14.60;99.90
31309;DHT22;17936;52.446;10.840;2023-03-22T14:43:55;14.70;99.90
31309;DHT22;17936;52.446;10.840;2023-03-22T14:46:22;14.70;99.90
31309;DHT22;17936;52.446;10.840;2023-03-22T14:48:57;14.70;99.90
31309;DHT22;17936;52.446;10.840;2023-03-22T14:51:35;14.60;99.90
31309;DHT22;17936;52.446;10.840;2023-03-22T14:54:07;14.60;99.90
31309;DHT22;17936;52.446;10.840;2023-03-22T14:56:38;14.60;99.90
31309;DHT22;17936;52.446;10.840;2023-03-22T14:59:06;14.60;99.90
31309;DHT22;17936;52.446;10.840;2023-03-22T15:01:37;14.60;99.90
31309;DHT22;17936;52.446;10.840;2023-03-22T15:04:06;14.40;99.90
31309;DHT22;17936;52.446;10.840;2023-03-22T15:06:45;14.30;99.90
31309;DHT22;17936;52.446;10.840;2023-03-22T15:09:14;14.30;99.90
31309;DHT22;17936;52.446;10.840;2023-03-22T15:11:42;14.10;99.90
31309;DHT22;17936;52.446;10.840;2023-03-22T15:14:08;13.90;99.90
31309;DHT22;17936;52.446;10.840;2023-03-22T15:16:37;13.90;99.90
31309;DHT22;17936;52.446;10.840;2023-03-22T15:19:08;13.60;99.90
31309;DHT22;17936;52.446;10.840;2023-03-22T15:21:38;13.60;99.90
31309;DHT22;17936;52.446;10.840;2023-03-22T15:26:43;13.50;99.90
31309;DHT22;17936;52.446;10.840;2023-03-22T15:29:12;13.50;99.90
31309;DHT22;17936;52.446;10.840;2023-03-22T15:31:45;13.50;99.90
31309;DHT22;17936;52.446;10.840;2023-03-22T15:34:22;13.50;99.90
31309;DHT22;17936;52.446;10.840;2023-03-22T15:36:48;13.40;99.90
31309;DHT22;17936;52.446;10.840;2023-03-22T15:39:20;13.40;99.90
31309;DHT22;17936;52.446;10.840;2023-03-22T15:41:52;13.40;99.90
31309;DHT22;17936;52.446;10.840;2023-03-22T15:44:29;13.30;99.90
31309;DHT22;17936;52.446;10.840;2023-03-22T15:47:07;13.30;99.90
31309;DHT22;17936;52.446;10.840;2023-03-22T15:49:37;13.40;99.90
31309;DHT22;17936;52.446;10.840;2023-03-22T15:54:43;13.40;99.90
31309;DHT22;17936;52.446;10.840;2023-03-22T15:57:17;13.40;99.90
31309;DHT22;17936;52.446;10.840;2023-03-22T16:00:22;13.40;99.90
31309;DHT22;17936;52.446;10.840;2023-03-22T16:02:59;13.50;99.90
31309;DHT22;17936;52.446;10.840;2023-03-22T16:05:26;13.50;99.90
31309;DHT22;17936;52.446;10.840;2023-03-22T16:07:52;13.50;99.90
31309;DHT22;17936;52.446;10.840;2023-03-22T16:10:23;13.50;99.90
31309;DHT22;17936;52.446;10.840;2023-03-22T16:12:50;13.50;99.90
31309;DHT22;17936;52.446;10.840;2023-03-22T16:15:20;13.50;99.90
31309;DHT22;17936;52.446;10.840;2023-03-22T16:17:47;13.50;99.90
31309;DHT22;17936;52.446;10.840;2023-03-22T16:20:13;13.50;99.90
31309;DHT22;17936;52.446;10.840;2023-03-22T16:22:41;13.50;99.90
31309;DHT22;17936;52.446;10.840;2023-03-22T16:25:09;13.60;99.90
31309;DHT22;17936;52.446;10.840;2023-03-22T16:27:38;13.70;99.90
31309;DHT22;17936;52.446;10.840;2023-03-22T16:30:04;13.70;99.90
31309;DHT22;17936;52.446;10.840;2023-03-22T16:32:30;13.80;99.90
31309;DHT22;17936;52.446;10.840;2023-03-22T16:34:55;13.70;99.90
31309;DHT22;17936;52.446;10.840;2023-03-22T16:37:23;13.70;99.90
31309;DHT22;17936;52.446;10.840;2023-03-22T16:39:49;13.80;99.90
31309;DHT22;17936;52.446;10.840;2023-03-22T16:42:24;13.80;99.90
31309;DHT22;17936;52.446;10.840;2023-03-22T16:44:51;13.80;99.90
31309;DHT22;17936;52.446;10.840;2023-03-22T16:47:20;13.80;99.90
31309;DHT22;17936;52.446;10.840;2023-03-22T16:49:49;13.80;99.90